チュニス の空港の天気 - METARとTAF

チュニス・カルタゴ国際空港 ( DTTA / TUN ) - チュニジア チュニス
飛行場実況気象(Metar)
観測時間07/17 10:00 CET (07/17 09:00 UTC)
風向・風速西北西 7m/s
視程10km以上
天気現象
少しの雲 雲底高度 910m
気温30℃
湿度46%
気圧1016hPa
METARDTTA 170900Z 30014KT 270V330 9999 FEW030 30/17 Q1016 NOSIG
過去の天気等 Google飛行場航空写真 Wunderground天気予報

過去48時間のMETAR

飛行場予報(TAF)
発表時間: 7/17 06:26 CET (7/17 05:26 UTC)
予報対象時間: 17日7時 CET ~ 18日7時 CET
風向・風速北西 5m/s
視程10km以上
なし
TAF DTTA 170526Z 1706/1806 32010KT CAVOK